createdAt,value
2023-02-04T00:01:19.355Z,5.40
2023-02-04T00:06:22.140Z,8.80
2023-02-04T00:11:24.935Z,7.60
2023-02-04T00:16:27.691Z,5.50
2023-02-04T00:21:30.428Z,6.60
2023-02-04T00:26:33.372Z,6.00
2023-02-04T00:31:36.358Z,5.50
2023-02-04T00:36:39.248Z,7.10
2023-02-04T00:41:42.253Z,5.40
2023-02-04T00:46:44.922Z,5.00
2023-02-04T00:51:47.754Z,4.70
2023-02-04T00:56:50.454Z,4.00
2023-02-04T01:01:53.172Z,5.70
2023-02-04T01:06:55.956Z,5.00
2023-02-04T01:11:58.640Z,4.60
2023-02-04T01:17:01.460Z,4.20
2023-02-04T01:22:04.134Z,4.40
2023-02-04T01:27:06.864Z,3.90
2023-02-04T01:32:09.774Z,4.20
2023-02-04T01:37:12.511Z,6.10
2023-02-04T01:42:15.261Z,4.40
2023-02-04T01:47:18.579Z,4.20
2023-02-04T01:52:23.129Z,4.20
2023-02-04T01:57:25.991Z,3.20
2023-02-04T02:02:48.076Z,5.40
2023-02-04T02:07:54.189Z,4.10
2023-02-04T02:12:57.671Z,4.90
2023-02-04T02:18:00.664Z,3.50
2023-02-04T02:23:03.785Z,3.30
2023-02-04T02:28:13.221Z,3.80
2023-02-04T02:33:19.462Z,3.30
2023-02-04T02:38:22.403Z,2.80
2023-02-04T02:43:28.303Z,2.70
2023-02-04T02:48:30.990Z,2.40
2023-02-04T02:53:34.076Z,2.60
2023-02-04T02:58:36.964Z,2.20
2023-02-04T03:03:45.726Z,2.50
2023-02-04T03:08:51.508Z,2.90
2023-02-04T03:13:54.271Z,2.40
2023-02-04T03:18:57.121Z,2.20
2023-02-04T03:24:00.049Z,2.30
2023-02-04T03:29:03.134Z,2.30
2023-02-04T03:34:06.352Z,2.10
2023-02-04T03:39:09.091Z,2.20
2023-02-04T03:44:11.750Z,2.20
2023-02-04T03:49:14.551Z,2.50
2023-02-04T03:54:17.559Z,1.80
2023-02-04T03:59:20.384Z,1.90
2023-02-04T04:04:23.258Z,1.90
2023-02-04T04:09:25.962Z,1.90
2023-02-04T04:14:28.626Z,1.80
2023-02-04T04:19:32.678Z,1.90
2023-02-04T04:24:35.374Z,2.30
2023-02-04T04:29:38.083Z,2.50
2023-02-04T04:34:40.809Z,2.10
2023-02-04T04:39:43.503Z,1.80
2023-02-04T04:44:46.280Z,1.70
2023-02-04T04:49:49.085Z,1.80
2023-02-04T04:54:51.781Z,1.80
2023-02-04T04:59:54.608Z,2.00
2023-02-04T05:04:57.379Z,2.90
2023-02-04T05:10:00.209Z,2.40
2023-02-04T05:15:03.277Z,1.80
2023-02-04T05:20:06.697Z,2.00
2023-02-04T05:25:09.394Z,2.30
2023-02-04T05:30:14.080Z,2.70
2023-02-04T05:35:16.816Z,2.90
2023-02-04T05:40:19.763Z,3.70
2023-02-04T05:45:22.564Z,4.50
2023-02-04T05:50:25.359Z,3.70
2023-02-04T05:55:28.084Z,3.30
2023-02-04T06:00:30.983Z,3.20
2023-02-04T06:05:33.971Z,3.10
2023-02-04T06:10:36.876Z,2.70
2023-02-04T06:15:39.775Z,4.10
2023-02-04T06:20:42.434Z,12.20
2023-02-04T06:25:45.174Z,7.40
2023-02-04T06:30:49.751Z,12.70
2023-02-04T06:35:52.655Z,9.10
2023-02-04T06:40:55.365Z,10.60
2023-02-04T06:45:58.077Z,8.30
2023-02-04T06:51:00.920Z,9.10
2023-02-04T06:56:03.724Z,8.40
2023-02-04T07:01:06.540Z,7.60
2023-02-04T07:06:09.318Z,6.20
2023-02-04T07:11:12.008Z,6.00
2023-02-04T07:16:14.749Z,5.70
2023-02-04T07:21:17.525Z,6.80
2023-02-04T07:26:20.351Z,5.90
2023-02-04T07:31:23.433Z,5.70
2023-02-04T07:36:26.391Z,5.30
2023-02-04T07:41:29.114Z,6.10
2023-02-04T07:46:32.393Z,7.50
2023-02-04T07:51:35.550Z,11.40
2023-02-04T07:56:38.454Z,10.30
2023-02-04T08:01:41.171Z,8.70
2023-02-04T08:06:44.063Z,7.80
2023-02-04T08:11:46.743Z,9.80
2023-02-04T08:16:49.434Z,9.80
2023-02-04T08:21:52.146Z,8.50
2023-02-04T08:26:54.810Z,8.70
2023-02-04T08:31:57.554Z,6.90
2023-02-04T08:37:00.310Z,5.70
2023-02-04T08:42:03.030Z,6.70
2023-02-04T08:47:05.852Z,8.10
2023-02-04T08:52:08.779Z,8.40
2023-02-04T08:57:11.571Z,9.10
2023-02-04T09:02:14.355Z,11.30
2023-02-04T09:07:17.180Z,8.50
2023-02-04T09:12:19.889Z,6.80
2023-02-04T09:17:22.684Z,7.50
2023-02-04T09:22:25.389Z,5.90
2023-02-04T09:27:28.079Z,4.80
2023-02-04T09:32:30.786Z,2.50
2023-02-04T09:37:33.708Z,2.60
2023-02-04T09:42:36.410Z,2.50
2023-02-04T09:47:39.199Z,3.20
2023-02-04T09:52:42.481Z,2.60
2023-02-04T09:57:46.007Z,4.50
2023-02-04T10:02:48.936Z,3.50
2023-02-04T10:07:51.697Z,3.90
2023-02-04T10:12:59.023Z,3.20
2023-02-04T10:18:07.447Z,3.50
2023-02-04T10:23:12.784Z,2.80
2023-02-04T10:28:15.615Z,2.80
2023-02-04T10:33:27.426Z,2.70
2023-02-04T10:38:30.328Z,3.70
2023-02-04T10:43:33.231Z,3.20
2023-02-04T10:48:42.388Z,2.80
2023-02-04T10:54:20.309Z,3.10
2023-02-04T10:59:28.028Z,3.00
2023-02-04T11:04:31.518Z,3.30
2023-02-04T11:09:34.225Z,2.70
2023-02-04T11:14:37.039Z,3.50
2023-02-04T11:19:40.063Z,2.40
2023-02-04T11:24:42.753Z,3.30
2023-02-04T11:29:46.981Z,3.30
2023-02-04T11:34:55.883Z,2.40
2023-02-04T11:40:00.131Z,7.00
2023-02-04T11:45:20.646Z,3.50
2023-02-04T11:50:30.653Z,3.80
2023-02-04T11:55:37.548Z,3.90
2023-02-04T12:00:42.511Z,3.30
2023-02-04T12:05:49.896Z,3.00
2023-02-04T12:10:58.530Z,2.50
2023-02-04T12:16:06.712Z,2.80
2023-02-04T12:21:09.485Z,3.00
2023-02-04T12:26:12.393Z,2.70
2023-02-04T12:31:15.264Z,2.80
2023-02-04T12:36:18.080Z,3.70
2023-02-04T12:41:20.759Z,4.00
2023-02-04T12:46:23.834Z,3.70
2023-02-04T12:51:26.690Z,14.10
2023-02-04T12:56:29.430Z,11.00
2023-02-04T13:01:32.935Z,7.10
2023-02-04T13:06:35.926Z,8.60
2023-02-04T13:11:38.713Z,5.90
2023-02-04T13:16:41.409Z,4.80
2023-02-04T13:21:44.098Z,4.40
2023-02-04T13:26:46.810Z,5.40
2023-02-04T13:31:49.994Z,4.80
2023-02-04T13:36:52.822Z,3.50
2023-02-04T13:41:55.627Z,10.50
2023-02-04T13:46:58.363Z,23.10
2023-02-04T13:52:01.135Z,11.60
2023-02-04T13:57:05.603Z,10.10
2023-02-04T14:02:09.092Z,9.40
2023-02-04T14:07:11.946Z,4.60
2023-02-04T14:12:15.537Z,3.60
2023-02-04T14:17:18.313Z,2.30
2023-02-04T14:22:21.110Z,1.70
2023-02-04T14:27:23.795Z,2.10
2023-02-04T14:32:26.624Z,4.00
2023-02-04T14:37:29.496Z,3.90
2023-02-04T14:42:32.421Z,3.30
2023-02-04T14:47:36.442Z,3.20
2023-02-04T14:52:39.349Z,5.20
2023-02-04T14:57:42.028Z,2.70
2023-02-04T15:02:44.884Z,4.00
2023-02-04T15:07:47.858Z,4.00
2023-02-04T15:12:51.269Z,3.80
2023-02-04T15:17:54.082Z,2.90
2023-02-04T15:22:57.481Z,2.30
2023-02-04T15:28:01.457Z,2.00
2023-02-04T15:33:04.380Z,3.00
2023-02-04T15:38:07.139Z,2.30
2023-02-04T15:43:09.885Z,7.80
2023-02-04T15:48:13.229Z,8.50
2023-02-04T15:53:17.514Z,6.40
2023-02-04T15:58:20.395Z,4.50
2023-02-04T16:03:23.970Z,9.90
2023-02-04T16:08:26.652Z,5.50
2023-02-04T16:13:29.396Z,3.90
2023-02-04T16:18:32.233Z,3.30
2023-02-04T16:23:34.976Z,3.00
2023-02-04T16:28:37.680Z,3.10
2023-02-04T16:33:40.337Z,2.70
2023-02-04T16:38:43.603Z,2.70
2023-02-04T16:43:46.838Z,2.60
2023-02-04T16:48:49.527Z,3.50
2023-02-04T16:53:52.210Z,3.50
2023-02-04T16:58:54.899Z,9.30
2023-02-04T17:04:00.477Z,9.80
2023-02-04T17:09:03.186Z,10.30
2023-02-04T17:14:09.821Z,16.60
2023-02-04T17:19:14.142Z,17.80
2023-02-04T17:24:17.094Z,35.80
2023-02-04T17:29:22.062Z,26.10
2023-02-04T17:34:24.780Z,20.10
2023-02-04T17:39:28.082Z,20.00
2023-02-04T17:44:30.980Z,32.00
2023-02-04T17:49:34.462Z,38.40
2023-02-04T17:54:37.300Z,39.50
2023-02-04T17:59:41.142Z,36.40
2023-02-04T18:04:44.955Z,31.70
2023-02-04T18:09:48.153Z,27.30
2023-02-04T18:14:50.964Z,16.80
2023-02-04T18:19:53.962Z,15.40
2023-02-04T18:24:57.999Z,13.00
2023-02-04T18:30:01.759Z,9.80
2023-02-04T18:35:25.788Z,10.50
2023-02-04T18:40:31.242Z,6.70
2023-02-04T18:45:35.691Z,5.10
2023-02-04T18:50:38.416Z,5.70
2023-02-04T18:55:49.477Z,5.40
2023-02-04T19:01:07.828Z,4.70
2023-02-04T19:06:23.705Z,3.90
2023-02-04T19:11:35.325Z,5.90
2023-02-04T19:16:38.230Z,8.90
2023-02-04T19:21:40.995Z,7.80
2023-02-04T19:26:50.769Z,7.10
2023-02-04T19:31:59.975Z,5.40
2023-02-04T19:37:18.249Z,5.10
2023-02-04T19:42:33.187Z,3.00
2023-02-04T19:47:44.237Z,3.10
2023-02-04T19:52:48.989Z,3.00
2023-02-04T19:58:13.338Z,4.30
2023-02-04T20:03:28.124Z,3.70
2023-02-04T20:08:54.932Z,3.60
2023-02-04T20:14:14.430Z,3.50
2023-02-04T20:19:23.401Z,2.30
2023-02-04T20:24:34.702Z,2.40
2023-02-04T20:29:37.569Z,2.60
2023-02-04T20:34:40.317Z,2.40
2023-02-04T20:39:43.112Z,2.50
2023-02-04T20:44:47.030Z,2.80
2023-02-04T20:49:57.120Z,4.70
2023-02-04T20:55:01.035Z,4.50
2023-02-04T21:00:14.061Z,5.20
2023-02-04T21:05:24.275Z,4.90
2023-02-04T21:10:26.914Z,3.80
2023-02-04T21:15:29.570Z,4.00
2023-02-04T21:20:34.712Z,4.10
2023-02-04T21:25:37.968Z,3.90
2023-02-04T21:30:40.891Z,4.20
2023-02-04T21:35:43.590Z,6.50
2023-02-04T21:40:46.314Z,10.00
2023-02-04T21:45:48.988Z,10.50
2023-02-04T21:50:51.919Z,8.70
2023-02-04T21:55:54.613Z,9.50
2023-02-04T22:00:57.314Z,10.00
2023-02-04T22:06:00.627Z,7.30
2023-02-04T22:11:03.335Z,7.20
2023-02-04T22:16:06.084Z,6.80
2023-02-04T22:21:08.867Z,7.10
2023-02-04T22:26:11.733Z,7.70
2023-02-04T22:31:14.907Z,5.30
2023-02-04T22:36:17.749Z,7.40
2023-02-04T22:41:20.449Z,18.90
2023-02-04T22:46:23.274Z,18.10
2023-02-04T22:51:26.044Z,13.70
2023-02-04T22:56:28.956Z,14.40
2023-02-04T23:01:31.653Z,18.30
2023-02-04T23:06:34.758Z,28.80
2023-02-04T23:11:37.460Z,16.40
2023-02-04T23:16:40.338Z,12.80
2023-02-04T23:21:43.126Z,10.20
2023-02-04T23:26:45.822Z,18.70
2023-02-04T23:31:48.600Z,21.50
2023-02-04T23:36:51.525Z,24.50
2023-02-04T23:41:54.277Z,22.10
2023-02-04T23:46:57.075Z,24.70
2023-02-04T23:51:59.793Z,19.80
2023-02-04T23:57:02.745Z,21.30
